Time;durP1;ratioP1;P1;durP2;ratioP2;P2;SDS_P1;SDS_P2;PMS_P1;PMS_P2;Temp;Humidity;BMP_temperature;BMP_pressure;BME280_temperature;BME280_humidity;BME280_pressure;Samples;Min_cycle;Max_cycle;Signal;HPM_P1;HPM_P2
2023/08/27 00:02:29;;;;;;;1.30;1.17;;;;;;;18.60;74.13;97279.97;6152610;28;20316;-92
2023/08/27 00:05:31;;;;;;;1.17;1.00;;;;;;;18.75;73.37;97284.28;6167512;28;20233;-92
2023/08/27 00:08:34;;;;;;;1.73;1.17;;;;;;;18.11;74.20;97216.06;6166453;28;20317;-93
2023/08/27 00:11:36;;;;;;;2.07;1.30;;;;;;;17.85;72.78;97141.13;6142386;28;20316;-92
2023/08/27 00:14:38;;;;;;;2.43;1.13;;;;;;;18.76;73.34;97281.25;6158086;28;20296;-92
2023/08/27 00:17:41;;;;;;;2.87;1.13;;;;;;;17.72;73.11;97158.84;6174361;28;20237;-93
2023/08/27 00:20:48;;;;;;;1.90;1.33;;;;;;;18.86;73.00;97314.53;6164120;28;20217;-92
2023/08/27 00:23:50;;;;;;;3.70;1.33;;;;;;;17.97;73.74;97194.50;6176668;28;20380;-91
2023/08/27 00:26:52;;;;;;;1.87;1.57;;;;;;;18.77;72.64;97293.69;6147504;28;20320;-93
2023/08/27 00:29:55;;;;;;;2.20;1.23;;;;;;;18.09;73.18;97210.97;6150071;28;20706;-89
2023/08/27 00:32:57;;;;;;;2.57;1.80;;;;;;;18.64;73.42;97302.56;6144907;28;20239;-89
2023/08/27 00:36:00;;;;;;;3.07;1.60;;;;;;;18.94;73.56;97330.00;6165620;28;20233;-89
2023/08/27 00:39:04;;;;;;;2.03;1.33;;;;;;;19.03;74.31;97349.78;6160282;28;20244;-91
2023/08/27 00:42:06;;;;;;;1.27;1.17;;;;;;;18.35;74.27;97234.69;6149773;28;20217;-91
2023/08/27 00:45:09;;;;;;;1.90;1.40;;;;;;;19.00;74.01;97351.19;6147616;28;20214;-91
2023/08/27 00:48:12;;;;;;;1.70;1.40;;;;;;;18.96;74.91;97333.19;6168554;28;20218;-91
2023/08/27 00:51:15;;;;;;;1.63;1.37;;;;;;;18.80;74.63;97292.25;6151059;28;20233;-90
2023/08/27 00:54:18;;;;;;;1.80;1.20;;;;;;;18.23;74.74;97217.13;6159911;28;20386;-91
2023/08/27 00:57:21;;;;;;;4.00;1.73;;;;;;;18.65;74.49;97255.59;6157665;28;20307;-91
2023/08/27 01:00:23;;;;;;;1.50;1.40;;;;;;;18.46;74.96;97241.44;6173646;28;20233;-91
2023/08/27 01:03:26;;;;;;;3.03;1.60;;;;;;;17.68;75.45;97117.44;6153668;28;20225;-90
2023/08/27 01:06:29;;;;;;;1.87;1.40;;;;;;;18.86;76.24;97307.22;6174098;28;20779;-90
2023/08/27 01:09:37;;;;;;;2.10;1.50;;;;;;;18.46;76.11;97239.56;6166862;28;20233;-91
2023/08/27 01:12:47;;;;;;;2.60;1.47;;;;;;;18.35;76.37;97250.88;6172543;28;20241;-91
2023/08/27 01:15:57;;;;;;;3.77;1.40;;;;;;;18.41;76.81;97238.88;6148465;28;20233;-91
2023/08/27 01:19:01;;;;;;;2.17;1.40;;;;;;;18.59;76.68;97278.41;6152509;28;20778;-91
2023/08/27 01:22:03;;;;;;;1.97;1.60;;;;;;;18.08;77.53;97206.69;6169674;28;20221;-91
2023/08/27 01:25:08;;;;;;;3.00;1.90;;;;;;;18.34;77.74;97241.97;6148086;28;20245;-91
2023/08/27 01:28:33;;;;;;;2.37;1.60;;;;;;;18.26;78.02;97243.47;6157795;28;20240;-91
2023/08/27 01:31:43;;;;;;;2.70;2.20;;;;;;;18.79;78.11;97321.16;6179944;28;20270;-91
2023/08/27 01:34:47;;;;;;;3.13;2.07;;;;;;;17.54;78.50;97104.03;6163233;28;20233;-90
2023/08/27 01:37:49;;;;;;;1.80;1.50;;;;;;;17.60;78.04;97128.16;6147320;28;20864;-91
2023/08/27 01:40:52;;;;;;;4.97;1.73;;;;;;;18.76;78.76;97297.47;6154718;28;20255;-89
2023/08/27 01:43:54;;;;;;;2.20;2.00;;;;;;;18.05;78.36;97180.31;6154152;28;20232;-90
2023/08/27 01:46:57;;;;;;;2.53;1.70;;;;;;;17.99;79.11;97182.34;6167148;28;20227;-89
2023/08/27 01:50:00;;;;;;;2.77;1.80;;;;;;;18.58;80.10;97276.81;6166896;28;20239;-92
2023/08/27 01:53:03;;;;;;;2.50;1.77;;;;;;;18.76;79.96;97315.56;6158609;28;20305;-93
2023/08/27 01:56:06;;;;;;;4.17;2.10;;;;;;;18.71;80.00;97294.06;6183654;28;20225;-93
2023/08/27 01:59:09;;;;;;;3.80;2.00;;;;;;;18.33;80.58;97243.09;6178254;28;20300;-91
2023/08/27 02:02:12;;;;;;;3.53;2.07;;;;;;;18.21;80.59;97219.31;6168904;28;20238;-92
2023/08/27 02:05:14;;;;;;;4.43;2.30;;;;;;;18.34;80.05;97233.91;6159960;28;20245;-93
2023/08/27 02:08:17;;;;;;;3.13;2.03;;;;;;;18.63;79.44;97246.22;6147841;28;20225;-93
2023/08/27 02:11:19;;;;;;;3.70;2.23;;;;;;;18.49;79.44;97220.06;6158900;28;20240;-93
2023/08/27 02:14:21;;;;;;;2.63;1.97;;;;;;;18.53;80.45;97249.94;6167536;28;20233;-92
2023/08/27 02:17:24;;;;;;;7.33;2.20;;;;;;;18.52;81.12;97241.06;6150902;28;20234;-92
2023/08/27 02:20:26;;;;;;;4.50;2.53;;;;;;;18.43;81.56;97253.66;6151711;28;20218;-93
2023/08/27 02:23:28;;;;;;;2.60;2.40;;;;;;;18.70;81.38;97262.81;6169833;28;20745;-92
2023/08/27 02:26:31;;;;;;;3.80;2.17;;;;;;;16.99;81.04;96993.69;6176256;28;20260;-93
2023/08/27 02:29:35;;;;;;;5.30;2.50;;;;;;;18.21;80.18;97175.38;6149527;28;20272;-93
2023/08/27 02:32:37;;;;;;;2.87;2.50;;;;;;;18.79;80.36;97260.97;6169522;28;20244;-93
2023/08/27 02:35:40;;;;;;;3.73;2.07;;;;;;;18.77;80.72;97253.19;6156215;28;20610;-92
2023/08/27 02:38:42;;;;;;;3.63;2.23;;;;;;;17.73;81.05;97090.47;6155869;28;20540;-92
2023/08/27 02:41:45;;;;;;;3.27;2.23;;;;;;;18.36;80.93;97193.13;6164572;28;20910;-92
2023/08/27 02:44:47;;;;;;;3.40;1.93;;;;;;;17.97;81.41;97154.06;6151893;28;20222;-93
2023/08/27 02:47:49;;;;;;;4.43;2.07;;;;;;;18.66;82.04;97251.00;6153310;28;20577;-92
2023/08/27 02:50:52;;;;;;;2.93;1.90;;;;;;;18.21;82.20;97180.78;6152121;28;20228;-93
2023/08/27 02:53:55;;;;;;;3.53;2.10;;;;;;;18.24;82.60;97185.59;6152290;28;20711;-92
2023/08/27 02:56:57;;;;;;;3.10;2.07;;;;;;;17.83;82.74;97127.13;6166435;28;20230;-92
2023/08/27 02:59:59;;;;;;;2.30;2.10;;;;;;;18.14;82.75;97191.19;6164269;28;20355;-92
2023/08/27 03:03:02;;;;;;;2.30;1.90;;;;;;;17.71;83.21;97143.78;6165586;28;20234;-92
2023/08/27 03:06:05;;;;;;;4.20;2.37;;;;;;;18.04;83.50;97206.47;6163518;28;20228;-93
2023/08/27 03:09:08;;;;;;;2.23;2.03;;;;;;;17.79;84.19;97159.31;6160841;28;20202;-93
2023/08/27 03:12:10;;;;;;;1.87;1.57;;;;;;;17.95;84.72;97196.72;6184615;28;20240;-92
2023/08/27 03:15:13;;;;;;;2.37;1.70;;;;;;;17.84;85.17;97179.16;6154671;28;20209;-93
2023/08/27 03:18:15;;;;;;;3.03;2.03;;;;;;;17.74;85.02;97170.19;6168386;28;20225;-93
2023/08/27 03:21:17;;;;;;;2.90;2.10;;;;;;;18.00;85.37;97220.84;6153984;28;20213;-92
2023/08/27 03:24:20;;;;;;;2.40;1.90;;;;;;;16.67;85.72;97016.03;6159626;28;20630;-92
2023/08/27 03:27:22;;;;;;;3.87;1.93;;;;;;;17.26;86.42;97121.28;6161012;28;20233;-92
2023/08/27 03:30:25;;;;;;;3.17;2.20;;;;;;;17.79;86.75;97215.88;6166036;28;20687;-93
2023/08/27 03:33:31;;;;;;;2.13;1.80;;;;;;;17.17;87.14;97148.06;6243673;28;20727;-93
2023/08/27 03:36:34;;;;;;;3.70;2.43;;;;;;;17.12;87.67;97133.91;6151786;28;20240;-92
2023/08/27 03:39:37;;;;;;;4.70;2.47;;;;;;;17.52;88.45;97218.50;6148923;28;20237;-92
2023/08/27 03:42:39;;;;;;;4.13;2.20;;;;;;;17.20;88.84;97195.94;6166928;28;20229;-92
2023/08/27 03:45:41;;;;;;;3.10;2.30;;;;;;;17.18;89.14;97197.31;6176968;28;20649;-93
2023/08/27 03:48:44;;;;;;;3.33;2.20;;;;;;;15.63;89.64;96987.66;6164793;28;20237;-92
2023/08/27 03:51:47;;;;;;;2.57;2.10;;;;;;;16.00;89.98;97066.63;6176155;28;20251;-92
2023/08/27 03:54:49;;;;;;;2.97;2.30;;;;;;;16.14;90.37;97083.59;6165274;28;20587;-92
2023/08/27 03:57:52;;;;;;;3.33;2.30;;;;;;;16.67;91.44;97192.75;6184882;28;20234;-92
2023/08/27 04:00:54;;;;;;;3.63;2.43;;;;;;;16.56;91.67;97192.13;6152236;28;20221;-89
2023/08/27 04:03:57;;;;;;;3.73;2.00;;;;;;;16.28;91.96;97133.94;6179628;28;20695;-89
2023/08/27 04:07:00;;;;;;;2.77;2.10;;;;;;;16.77;91.64;97204.19;6164965;28;20243;-89
2023/08/27 04:10:04;;;;;;;2.73;2.00;;;;;;;15.87;91.70;97052.03;6171698;28;20232;-89
2023/08/27 04:13:06;;;;;;;2.40;2.20;;;;;;;15.92;91.82;97053.84;6195254;28;20289;-90
2023/08/27 04:16:10;;;;;;;2.17;1.97;;;;;;;16.61;91.85;97161.66;6178534;28;20225;-90
2023/08/27 04:19:12;;;;;;;3.63;1.97;;;;;;;15.99;91.96;97051.59;6184010;28;20241;-90
2023/08/27 04:22:15;;;;;;;2.40;2.13;;;;;;;16.69;92.15;97185.19;6164373;28;20245;-90
2023/08/27 04:25:18;;;;;;;2.83;2.27;;;;;;;16.60;92.60;97152.81;6174202;28;20240;-90
2023/08/27 04:28:21;;;;;;;2.93;2.50;;;;;;;16.77;93.18;97185.34;6185913;28;20327;-90
2023/08/27 04:31:24;;;;;;;3.03;2.03;;;;;;;16.57;93.01;97148.00;6184986;28;20218;-89
2023/08/27 04:34:27;;;;;;;4.10;2.27;;;;;;;15.48;92.99;96969.06;6183796;28;20241;-89
2023/08/27 04:37:29;;;;;;;4.43;2.20;;;;;;;16.42;93.43;97124.84;6187419;28;20239;-89
2023/08/27 04:40:32;;;;;;;3.23;2.00;;;;;;;16.17;94.06;97074.16;6188070;28;20249;-89
2023/08/27 04:43:34;;;;;;;3.23;2.30;;;;;;;16.48;94.30;97114.78;6177901;28;20233;-89
2023/08/27 04:46:36;;;;;;;2.33;2.00;;;;;;;16.69;94.38;97140.25;6179333;28;20248;-89
2023/08/27 04:49:40;;;;;;;2.77;2.47;;;;;;;16.30;94.35;97077.97;6191428;28;20239;-89
2023/08/27 04:52:42;;;;;;;5.07;2.20;;;;;;;16.89;94.21;97155.28;6167386;28;20234;-90
2023/08/27 04:55:45;;;;;;;3.57;2.40;;;;;;;16.93;94.27;97158.19;6176217;28;20237;-89
2023/08/27 04:58:49;;;;;;;3.40;2.20;;;;;;;16.94;94.10;97154.41;6152738;28;20226;-89
2023/08/27 05:01:51;;;;;;;3.23;2.37;;;;;;;16.77;93.98;97093.09;6152647;28;20240;-89
2023/08/27 05:04:56;;;;;;;2.87;2.07;;;;;;;16.91;94.14;97111.97;6144316;28;20325;-88
2023/08/27 05:07:58;;;;;;;2.33;2.13;;;;;;;17.06;93.76;97121.66;6162472;28;20233;-90
2023/08/27 05:11:01;;;;;;;4.27;2.30;;;;;;;16.80;94.23;97081.75;6165253;28;20238;-92
2023/08/27 05:14:04;;;;;;;3.47;2.37;;;;;;;17.16;94.31;97114.19;6149641;28;20237;-91
2023/08/27 05:17:06;;;;;;;3.67;2.47;;;;;;;17.03;94.61;97075.38;6148137;28;20228;-92
2023/08/27 05:20:09;;;;;;;3.53;2.00;;;;;;;17.25;94.57;97108.91;6148171;28;20313;-89
2023/08/27 05:23:12;;;;;;;2.87;2.20;;;;;;;17.54;95.64;97141.72;6148179;28;20235;-89
2023/08/27 05:26:15;;;;;;;4.10;2.17;;;;;;;16.83;94.90;97027.34;6168630;28;20334;-90
2023/08/27 05:29:17;;;;;;;3.60;2.50;;;;;;;17.64;95.00;97153.41;6147216;28;20229;-89
2023/08/27 05:32:20;;;;;;;3.03;2.43;;;;;;;17.38;95.03;97113.47;6169487;28;20233;-89
2023/08/27 05:35:24;;;;;;;5.20;2.20;;;;;;;16.64;94.86;96997.81;6177567;28;20233;-89
2023/08/27 05:38:26;;;;;;;5.00;2.70;;;;;;;17.35;95.12;97092.56;6158679;28;20230;-90
2023/08/27 05:41:31;;;;;;;2.30;2.10;;;;;;;16.55;95.05;96953.91;6168378;28;20321;-90
2023/08/27 05:44:33;;;;;;;2.97;2.30;;;;;;;17.54;94.94;97097.84;6174695;28;20245;-90
2023/08/27 05:47:36;;;;;;;2.50;2.30;;;;;;;17.05;95.02;97040.13;6149344;28;20235;-89
2023/08/27 05:50:39;;;;;;;5.43;2.83;;;;;;;17.27;94.87;97045.59;6173044;28;20238;-89
2023/08/27 05:53:42;;;;;;;2.57;2.30;;;;;;;17.87;95.34;97111.97;6151572;28;20238;-90
2023/08/27 05:56:45;;;;;;;2.40;2.20;;;;;;;17.64;94.98;97069.91;6151048;28;20236;-90
2023/08/27 05:59:47;;;;;;;2.50;2.20;;;;;;;17.53;94.42;97035.06;6151708;28;20234;-90
2023/08/27 06:02:52;;;;;;;3.00;2.33;;;;;;;17.39;94.46;96993.94;6146371;28;20939;-91
2023/08/27 06:05:55;;;;;;;2.93;1.90;;;;;;;17.74;94.14;97061.63;6199139;28;20734;-90
2023/08/27 06:08:57;;;;;;;2.47;2.27;;;;;;;17.86;94.27;97072.66;6155425;28;20225;-90
2023/08/27 06:11:59;;;;;;;2.20;1.73;;;;;;;17.38;94.26;96976.16;6150751;28;20269;-89
2023/08/27 06:15:04;;;;;;;2.40;2.20;;;;;;;17.37;93.44;96961.13;6165749;28;20225;-89
2023/08/27 06:18:07;;;;;;;2.30;2.10;;;;;;;17.90;93.28;97018.97;6165211;28;20726;-90
2023/08/27 06:21:09;;;;;;;2.60;2.00;;;;;;;17.96;92.55;97002.34;6150975;28;20221;-90
2023/08/27 06:24:15;;;;;;;2.23;1.93;;;;;;;18.27;92.88;97039.34;6149262;28;20218;-89
2023/08/27 06:27:25;;;;;;;2.60;2.40;;;;;;;18.48;93.01;97069.34;6173428;28;20225;-89
2023/08/27 06:30:33;;;;;;;2.10;1.90;;;;;;;18.46;92.60;97036.47;6151655;28;20441;-89
2023/08/27 06:33:39;;;;;;;3.67;2.10;;;;;;;18.73;91.64;97067.94;6175070;28;20316;-90
2023/08/27 06:36:42;;;;;;;4.83;2.40;;;;;;;18.80;91.52;97060.97;6151244;28;20311;-90
2023/08/27 06:39:45;;;;;;;2.87;2.33;;;;;;;18.71;90.98;97038.53;6149433;28;20368;-90
2023/08/27 06:42:47;;;;;;;2.33;2.10;;;;;;;18.77;90.41;97012.25;6165492;28;20230;-90
2023/08/27 06:45:56;;;;;;;3.27;2.07;;;;;;;18.88;90.25;97013.53;6169730;28;20226;-89
2023/08/27 06:48:58;;;;;;;2.90;2.17;;;;;;;18.94;89.88;97006.91;6164736;28;20635;-90
2023/08/27 06:52:00;;;;;;;2.50;2.30;;;;;;;19.23;89.18;97027.16;6151427;28;20733;-90
2023/08/27 06:55:03;;;;;;;2.63;2.00;;;;;;;19.58;86.22;97039.63;6164286;28;20229;-91
2023/08/27 06:58:05;;;;;;;2.47;2.03;;;;;;;19.93;85.20;97060.53;6183073;28;20233;-91
2023/08/27 07:01:08;;;;;;;2.90;2.07;;;;;;;18.72;85.00;96845.88;6149172;28;20663;-91
2023/08/27 07:04:10;;;;;;;2.17;1.97;;;;;;;19.05;84.64;96891.31;6156617;28;20240;-89
2023/08/27 07:07:13;;;;;;;4.87;2.20;;;;;;;20.00;83.04;97012.97;6164662;28;20249;-90
2023/08/27 07:10:15;;;;;;;2.93;2.13;;;;;;;20.25;83.55;97041.13;6167493;28;20599;-90
2023/08/27 07:13:17;;;;;;;2.30;2.07;;;;;;;19.52;83.62;96921.22;6164601;28;20264;-90
2023/08/27 07:16:20;;;;;;;2.37;2.17;;;;;;;19.13;84.04;96882.44;6165116;28;20228;-89
2023/08/27 07:19:23;;;;;;;2.97;2.00;;;;;;;20.13;83.74;97048.28;6183170;28;20257;-90
2023/08/27 07:22:27;;;;;;;2.50;2.23;;;;;;;19.73;82.32;96976.25;6147204;28;20656;-89
2023/08/27 07:25:33;;;;;;;2.27;1.90;;;;;;;19.94;81.68;96992.59;6151373;28;20222;-90
2023/08/27 07:28:36;;;;;;;3.47;2.10;;;;;;;20.36;80.94;97044.28;6150239;28;20237;-87
2023/08/27 07:31:38;;;;;;;4.73;2.10;;;;;;;20.17;81.24;97025.69;6164200;28;20718;-88
2023/08/27 07:34:40;;;;;;;2.30;2.10;;;;;;;20.31;79.59;97031.72;6166180;28;20236;-86
2023/08/27 07:37:42;;;;;;;3.87;2.03;;;;;;;20.34;81.20;97028.38;6168422;28;20694;-85
2023/08/27 07:40:45;;;;;;;2.90;2.00;;;;;;;20.28;78.96;97023.44;6148236;28;20233;-82
2023/08/27 07:43:48;;;;;;;2.73;1.90;;;;;;;20.27;80.75;97022.66;6163274;28;20225;-82
2023/08/27 07:46:51;;;;;;;2.80;1.87;;;;;;;19.28;80.05;96879.28;6178570;28;20221;-84
2023/08/27 07:49:53;;;;;;;2.10;1.70;;;;;;;19.85;79.93;96959.38;6147607;28;20233;-82
2023/08/27 07:52:56;;;;;;;3.30;2.20;;;;;;;20.42;81.20;97040.28;6162350;28;20375;-81
2023/08/27 07:55:58;;;;;;;1.70;1.60;;;;;;;20.55;81.45;97057.50;6163623;28;20780;-82
2023/08/27 07:59:00;;;;;;;3.83;1.93;;;;;;;20.43;82.25;97051.91;6166040;28;20339;-82
2023/08/27 08:02:03;;;;;;;4.87;2.13;;;;;;;20.67;83.33;97059.53;6151513;28;20229;-82
2023/08/27 08:05:06;;;;;;;2.83;2.07;;;;;;;20.45;81.88;97014.50;6135663;28;20225;-82
2023/08/27 08:08:08;;;;;;;2.40;1.87;;;;;;;20.48;81.73;97011.97;6177669;28;20229;-82
2023/08/27 08:11:10;;;;;;;2.17;1.80;;;;;;;20.44;81.29;96977.72;6163501;28;20230;-82
2023/08/27 08:14:13;;;;;;;2.40;2.00;;;;;;;20.56;81.01;96986.00;6142395;28;20241;-83
2023/08/27 08:17:15;;;;;;;2.13;1.70;;;;;;;20.40;80.85;96955.97;6148599;28;20241;-83
2023/08/27 08:20:17;;;;;;;2.60;1.87;;;;;;;20.63;80.72;96983.59;6150508;28;20712;-82
2023/08/27 08:23:20;;;;;;;2.10;1.90;;;;;;;20.86;80.45;97003.88;6168606;28;20322;-82
2023/08/27 08:26:23;;;;;;;2.97;2.00;;;;;;;20.47;80.51;96937.31;6146751;28;20244;-82
2023/08/27 08:29:25;;;;;;;2.53;1.80;;;;;;;20.87;78.23;96969.47;6175670;28;20224;-82
2023/08/27 08:32:27;;;;;;;2.17;1.83;;;;;;;21.08;78.02;96970.34;6164751;28;20234;-82
2023/08/27 08:35:30;;;;;;;2.70;1.97;;;;;;;21.50;78.45;97004.88;6164221;28;20267;-82
2023/08/27 08:38:33;;;;;;;2.23;1.80;;;;;;;21.37;78.26;96972.25;6165346;28;20221;-81
2023/08/27 08:41:41;;;;;;;1.87;1.67;;;;;;;21.67;78.82;97006.66;6161751;28;20229;-82
2023/08/27 08:45:10;;;;;;;3.10;2.00;;;;;;;21.79;78.82;96983.13;6156361;28;20598;-82
2023/08/27 08:48:14;;;;;;;2.30;2.10;;;;;;;21.90;79.17;96991.63;6175117;28;20513;-82
2023/08/27 08:51:24;;;;;;;2.13;1.73;;;;;;;21.93;78.69;96966.56;6181172;28;20226;-82
2023/08/27 08:54:28;;;;;;;4.30;2.13;;;;;;;21.92;78.63;96959.56;6167765;28;20241;-82
2023/08/27 08:57:33;;;;;;;3.90;1.80;;;;;;;21.85;78.54;96932.97;6151224;28;20217;-82
2023/08/27 09:00:36;;;;;;;3.70;1.90;;;;;;;21.81;78.50;96920.41;6165358;28;20275;-82
2023/08/27 09:03:40;;;;;;;2.73;1.90;;;;;;;22.12;76.65;96949.84;6167131;28;20317;-83
2023/08/27 09:06:43;;;;;;;3.97;2.13;;;;;;;22.27;75.49;96954.63;6172433;28;20232;-82
2023/08/27 09:09:48;;;;;;;1.93;1.70;;;;;;;22.09;76.02;96915.19;6168155;28;20225;-85
2023/08/27 09:12:57;;;;;;;3.80;2.00;;;;;;;21.99;76.60;96883.09;6176823;28;20461;-84
2023/08/27 09:15:59;;;;;;;2.30;1.97;;;;;;;22.20;76.28;96894.69;6158562;28;20242;-85
2023/08/27 09:19:02;;;;;;;2.53;2.17;;;;;;;22.46;74.33;96920.72;6184705;28;20259;-85
2023/08/27 09:22:04;;;;;;;2.65;2.33;;;;;;;22.83;74.95;96960.34;6152698;28;20233;-85
2023/08/27 09:25:09;;;;;;;3.92;2.47;;;;;;;22.75;73.95;96928.66;6182903;28;20218;-84
2023/08/27 09:28:11;;;;;;;2.78;2.30;;;;;;;22.83;72.03;96919.63;6167118;28;20232;-84
2023/08/27 09:31:40;;;;;;;2.15;1.95;;;;;;;23.15;73.15;96947.84;6173114;28;20602;-84
2023/08/27 09:34:43;;;;;;;2.67;2.10;;;;;;;23.07;70.84;96923.50;6169808;28;20773;-84
2023/08/27 09:37:47;;;;;;;2.97;1.80;;;;;;;23.27;71.65;96954.38;6166152;28;20229;-85
2023/08/27 09:40:49;;;;;;;3.05;2.22;;;;;;;23.15;70.85;96922.56;6176404;28;20315;-84
2023/08/27 09:43:54;;;;;;;3.05;2.20;;;;;;;23.12;71.37;96906.94;6181813;28;20237;-85
2023/08/27 09:47:08;;;;;;;6.80;2.22;;;;;;;23.47;72.14;96952.63;6178554;28;20229;-85
2023/08/27 09:50:17;;;;;;;2.95;2.67;;;;;;;23.18;71.27;96909.09;6159283;28;20314;-84
2023/08/27 09:53:20;;;;;;;2.28;2.08;;;;;;;23.30;72.46;96930.03;6189120;28;20229;-84
2023/08/27 09:56:26;;;;;;;2.55;2.28;;;;;;;23.24;73.50;96908.84;6175806;28;20234;-83
2023/08/27 09:59:30;;;;;;;2.10;1.90;;;;;;;23.08;74.59;96898.69;6199698;28;20237;-83
2023/08/27 10:02:35;;;;;;;3.65;2.70;;;;;;;23.16;73.40;96902.44;6200440;28;20305;-83
2023/08/27 10:05:38;;;;;;;2.72;2.50;;;;;;;23.43;71.42;96904.38;6181630;28;20243;-83
2023/08/27 10:08:51;;;;;;;3.88;3.10;;;;;;;23.75;68.37;96918.16;6191992;28;20244;-83
2023/08/27 10:11:53;;;;;;;5.07;3.85;;;;;;;24.05;65.59;96915.06;6194062;28;20297;-83
2023/08/27 10:14:57;;;;;;;5.03;3.95;;;;;;;24.05;65.46;96901.47;6194404;28;20229;-83
2023/08/27 10:18:00;;;;;;;4.97;3.88;;;;;;;24.27;66.55;96917.19;6196220;28;20213;-83
2023/08/27 10:21:04;;;;;;;5.53;3.67;;;;;;;24.29;68.30;96916.88;6196341;28;20233;-83
2023/08/27 10:24:10;;;;;;;3.47;3.17;;;;;;;24.20;68.73;96904.19;6173306;28;20217;-82
2023/08/27 10:27:12;;;;;;;5.65;3.90;;;;;;;24.36;68.51;96928.75;6188639;28;20225;-82
2023/08/27 10:30:16;;;;;;;5.72;4.00;;;;;;;24.27;67.04;96909.03;6167629;28;20206;-83
2023/08/27 10:33:19;;;;;;;4.32;3.90;;;;;;;24.43;66.72;96904.44;6188888;28;20241;-82
2023/08/27 10:36:28;;;;;;;4.60;3.70;;;;;;;24.59;66.58;96909.09;6177929;28;20329;-82
2023/08/27 10:39:33;;;;;;;6.07;4.00;;;;;;;24.98;66.29;96955.56;6191645;28;20234;-82
2023/08/27 10:42:39;;;;;;;6.53;4.35;;;;;;;25.07;64.21;96967.84;6191561;28;20234;-82
2023/08/27 10:45:41;;;;;;;4.68;3.97;;;;;;;24.81;64.23;96937.63;6169712;28;20233;-82
2023/08/27 10:48:52;;;;;;;4.70;4.22;;;;;;;25.01;62.42;96961.06;6172547;28;20253;-81
2023/08/27 10:51:55;;;;;;;4.30;3.90;;;;;;;25.17;62.26;96970.06;6197219;28;20268;-84
2023/08/27 10:54:59;;;;;;;4.25;3.85;;;;;;;25.36;62.96;96972.03;6174522;28;20233;-84
2023/08/27 10:58:23;;;;;;;4.70;3.63;;;;;;;25.00;60.58;96898.75;6174959;28;20449;-86
2023/08/27 11:01:26;;;;;;;17.70;5.63;;;;;;;25.60;60.89;96971.00;6163565;28;20249;-85
2023/08/27 11:04:37;;;;;;;10.63;4.38;;;;;;;25.68;60.86;96961.81;6146651;28;20245;-82
2023/08/27 11:07:41;;;;;;;4.80;4.30;;;;;;;25.82;60.67;96972.28;6184011;28;20269;-86
2023/08/27 11:10:44;;;;;;;6.53;4.47;;;;;;;25.53;59.58;96929.16;6155053;28;20230;-87
2023/08/27 11:13:47;;;;;;;4.70;3.47;;;;;;;25.41;60.89;96913.69;6165482;28;20325;-86
2023/08/27 11:16:59;;;;;;;4.32;3.38;;;;;;;25.28;63.20;96992.13;6169396;28;20233;-87
2023/08/27 11:20:22;;;;;;;3.95;3.47;;;;;;;24.84;66.46;97000.38;6162236;28;20253;-86
2023/08/27 11:23:24;;;;;;;4.95;3.75;;;;;;;24.28;67.43;96956.09;6147654;28;20241;-85
2023/08/27 11:26:28;;;;;;;5.30;3.67;;;;;;;24.23;69.79;96992.50;6170173;28;20730;-84
2023/08/27 11:29:33;;;;;;;4.32;3.90;;;;;;;23.96;68.81;96955.25;6165204;28;20614;-83
2023/08/27 11:32:36;;;;;;;5.03;4.00;;;;;;;24.12;69.68;96986.00;6161543;28;20225;-82
2023/08/27 11:35:38;;;;;;;3.50;3.20;;;;;;;24.03;69.46;96934.44;6169599;28;20894;-83
2023/08/27 11:38:41;;;;;;;4.00;3.60;;;;;;;24.35;69.14;96991.69;6150597;28;20226;-82
2023/08/27 11:41:44;;;;;;;8.00;4.15;;;;;;;24.36;67.73;96985.91;6162627;28;20317;-82
2023/08/27 11:44:51;;;;;;;4.97;3.67;;;;;;;24.56;66.68;97003.16;6150330;28;20242;-83
2023/08/27 11:47:55;;;;;;;6.10;4.20;;;;;;;23.76;67.52;96897.16;6158935;28;20260;-82
2023/08/27 11:50:57;;;;;;;6.00;4.40;;;;;;;24.01;68.45;96960.44;6150241;28;20251;-84
2023/08/27 11:54:10;;;;;;;6.22;3.75;;;;;;;24.41;68.75;96984.88;6168379;28;20249;-84
2023/08/27 11:57:18;;;;;;;5.53;4.10;;;;;;;24.40;67.91;96992.25;6165316;28;20237;-82
2023/08/27 12:00:21;;;;;;;4.32;3.83;;;;;;;24.06;70.05;96968.34;6158704;28;25559;-84
2023/08/27 12:03:23;;;;;;;4.53;3.92;;;;;;;24.19;68.02;97006.03;6177788;28;20217;-86
2023/08/27 12:06:28;;;;;;;4.32;3.92;;;;;;;23.49;68.65;96945.72;6132664;28;20278;-83
2023/08/27 12:09:33;;;;;;;5.97;4.35;;;;;;;22.75;69.14;96849.13;6184239;28;20609;-90
2023/08/27 12:12:43;;;;;;;6.68;4.50;;;;;;;23.10;67.86;96947.25;6178640;28;20218;-92
2023/08/27 12:15:47;;;;;;;4.00;3.60;;;;;;;22.11;70.11;96810.69;6186284;28;20245;-91
2023/08/27 12:18:49;;;;;;;7.30;4.22;;;;;;;22.14;70.50;96820.06;6143679;28;20602;-91
2023/08/27 12:21:53;;;;;;;6.43;4.63;;;;;;;21.90;67.88;96761.91;6180473;28;20763;-92
2023/08/27 12:25:00;;;;;;;5.07;4.60;;;;;;;21.88;67.75;96733.56;6198488;28;20233;-93
2023/08/27 12:28:03;;;;;;;6.35;4.97;;;;;;;22.72;67.24;96877.78;6197025;28;20597;-92
2023/08/27 12:31:05;;;;;;;4.93;4.38;;;;;;;23.01;66.70;96906.63;6173975;28;20252;-93
2023/08/27 12:34:08;;;;;;;6.35;5.20;;;;;;;21.77;67.32;96733.22;6179363;28;20236;-92
2023/08/27 12:37:12;;;;;;;7.05;4.95;;;;;;;23.27;67.42;96976.91;6142512;28;20592;-94
2023/08/27 12:40:15;;;;;;;5.60;5.05;;;;;;;21.81;68.28;96746.88;6180002;28;20242;-91
2023/08/27 12:43:17;;;;;;;6.22;5.35;;;;;;;21.34;68.03;96687.66;6147425;28;20315;-92
2023/08/27 12:46:20;;;;;;;5.43;4.88;;;;;;;21.92;68.14;96766.22;6151504;28;20328;-92
2023/08/27 12:49:22;;;;;;;7.25;5.53;;;;;;;22.94;66.56;96902.91;6185719;28;20233;-93
2023/08/27 12:52:25;;;;;;;8.15;5.10;;;;;;;22.24;68.69;96811.47;6184498;28;20237;-93
2023/08/27 12:55:27;;;;;;;8.27;6.00;;;;;;;22.78;65.13;96849.25;6182319;28;20599;-92
2023/08/27 12:58:30;;;;;;;8.65;5.90;;;;;;;22.24;66.95;96807.97;6168094;28;20231;-91
2023/08/27 13:01:33;;;;;;;8.70;6.03;;;;;;;21.66;65.49;96704.97;6169080;28;20233;-91
2023/08/27 13:04:39;;;;;;;6.72;5.90;;;;;;;21.52;67.06;96702.56;6160851;28;20642;-92
2023/08/27 13:07:45;;;;;;;7.40;5.82;;;;;;;23.36;66.17;96979.50;6162599;28;20234;-92
2023/08/27 13:11:00;;;;;;;8.20;5.70;;;;;;;21.42;66.96;96705.72;6167100;28;20230;-93
2023/08/27 13:14:04;;;;;;;7.03;5.85;;;;;;;21.97;66.89;96766.81;6178793;28;20263;-93
2023/08/27 13:17:09;;;;;;;7.60;5.80;;;;;;;23.30;65.88;96981.66;6161325;28;20230;-92
2023/08/27 13:20:16;;;;;;;6.77;5.30;;;;;;;21.09;66.35;96655.06;6158940;28;20233;-93
2023/08/27 13:23:24;;;;;;;6.60;5.93;;;;;;;21.93;66.26;96738.78;6144009;28;20230;-91
2023/08/27 13:26:28;;;;;;;6.83;6.13;;;;;;;23.50;64.65;96976.44;6142348;28;20316;-90
2023/08/27 13:29:42;;;;;;;6.27;5.73;;;;;;;21.06;64.05;96600.78;6177584;28;20237;-92
2023/08/27 13:32:48;;;;;;;7.47;5.55;;;;;;;22.70;64.22;96887.38;6157211;28;20230;-91
2023/08/27 13:35:58;;;;;;;5.70;5.20;;;;;;;21.08;66.60;96647.25;6145991;28;20226;-92
2023/08/27 13:39:04;;;;;;;6.20;5.60;;;;;;;21.33;66.34;96653.56;6143604;28;20695;-92
2023/08/27 13:42:11;;;;;;;7.07;5.90;;;;;;;22.57;64.11;96805.16;6177373;28;20586;-92
2023/08/27 13:45:14;;;;;;;7.18;6.47;;;;;;;22.46;64.82;96804.81;6161183;28;20230;-92
2023/08/27 13:48:20;;;;;;;6.50;5.90;;;;;;;21.76;63.93;96663.06;6161181;28;20211;-93
2023/08/27 13:51:23;;;;;;;6.93;6.22;;;;;;;22.93;63.84;96877.66;6160812;28;20222;-94
2023/08/27 13:54:26;;;;;;;7.68;6.32;;;;;;;22.99;63.91;96924.41;6160957;28;20228;-93
2023/08/27 13:57:29;;;;;;;7.97;6.70;;;;;;;22.22;64.23;96777.69;6159271;28;20222;-92
2023/08/27 14:00:35;;;;;;;7.60;6.68;;;;;;;21.70;65.75;96741.13;6161304;28;20233;-91
2023/08/27 14:03:39;;;;;;;7.60;6.50;;;;;;;20.75;66.11;96621.00;6148116;28;20306;-93
2023/08/27 14:06:43;;;;;;;6.90;6.30;;;;;;;21.13;65.98;96655.97;6161347;28;20257;-92
2023/08/27 14:09:46;;;;;;;7.35;6.65;;;;;;;22.46;65.37;96858.28;6159302;28;20234;-92
2023/08/27 14:12:49;;;;;;;10.05;7.15;;;;;;;22.77;63.97;96858.53;6160827;28;20308;-93
2023/08/27 14:15:54;;;;;;;6.72;6.10;;;;;;;21.63;63.29;96689.41;6145617;28;20237;-93
2023/08/27 14:18:57;;;;;;;7.47;6.30;;;;;;;23.14;63.40;96897.31;6144344;28;20715;-92
2023/08/27 14:22:00;;;;;;;7.35;6.45;;;;;;;23.36;64.58;96953.13;6144325;28;20245;-93
2023/08/27 14:25:06;;;;;;;7.32;6.63;;;;;;;21.79;65.36;96760.78;6161096;28;20253;-92
2023/08/27 14:28:09;;;;;;;7.85;5.88;;;;;;;23.43;64.50;96985.16;6161604;28;20226;-91